createdAt,value
2022-12-11T00:00:53.856Z,19.35
2022-12-11T00:03:20.538Z,20.20
2022-12-11T00:05:47.232Z,18.15
2022-12-11T00:08:17.886Z,19.40
2022-12-11T00:10:49.564Z,18.50
2022-12-11T00:13:18.708Z,19.73
2022-12-11T00:15:47.905Z,19.38
2022-12-11T00:18:17.768Z,18.38
2022-12-11T00:20:46.740Z,18.10
2022-12-11T00:23:13.385Z,19.23
2022-12-11T00:25:44.662Z,20.52
2022-12-11T00:28:12.951Z,20.97
2022-12-11T00:30:41.316Z,21.50
2022-12-11T00:33:08.737Z,20.77
2022-12-11T00:35:39.635Z,22.38
2022-12-11T00:38:06.267Z,20.13
2022-12-11T00:40:36.841Z,21.63
2022-12-11T00:43:04.037Z,21.90
2022-12-11T00:45:30.866Z,22.75
2022-12-11T00:47:57.601Z,20.52
2022-12-11T00:50:24.195Z,22.10
2022-12-11T00:52:52.965Z,21.17
2022-12-11T00:55:19.607Z,20.25
2022-12-11T00:57:48.806Z,19.08
2022-12-11T01:00:15.636Z,21.25
2022-12-11T01:02:42.579Z,21.60
2022-12-11T01:05:10.800Z,20.88
2022-12-11T01:07:39.994Z,20.27
2022-12-11T01:10:25.106Z,20.10
2022-12-11T01:13:06.592Z,20.75
2022-12-11T01:15:41.372Z,21.53
2022-12-11T01:18:09.540Z,19.70
2022-12-11T01:20:39.201Z,21.17
2022-12-11T01:23:08.414Z,18.50
2022-12-11T01:25:38.560Z,18.00
2022-12-11T01:28:06.319Z,19.20
2022-12-11T01:30:33.412Z,18.27
2022-12-11T01:33:02.038Z,19.65
2022-12-11T01:35:31.186Z,19.48
2022-12-11T01:37:57.794Z,19.15
2022-12-11T01:40:24.679Z,18.48
2022-12-11T01:42:51.328Z,18.67
2022-12-11T01:45:27.567Z,18.40
2022-12-11T01:48:19.576Z,20.00
2022-12-11T01:51:02.417Z,13.43
2022-12-11T01:56:18.248Z,17.88
2022-12-11T01:58:49.666Z,18.33
2022-12-11T02:01:27.405Z,18.60
2022-12-11T02:03:57.947Z,18.10
2022-12-11T02:06:33.529Z,18.98
2022-12-11T02:09:00.965Z,18.40
2022-12-11T02:11:45.880Z,17.30
2022-12-11T02:14:48.532Z,17.88
2022-12-11T02:20:16.825Z,14.57
2022-12-11T02:26:14.446Z,14.90
2022-12-11T02:28:54.643Z,14.95
2022-12-11T02:31:36.421Z,15.18
2022-12-11T02:34:17.845Z,17.20
2022-12-11T02:36:50.672Z,18.05
2022-12-11T02:39:22.383Z,16.75
2022-12-11T02:41:51.151Z,16.67
2022-12-11T02:44:24.633Z,17.88
2022-12-11T02:46:52.304Z,17.38
2022-12-11T02:49:21.052Z,17.20
2022-12-11T02:51:52.219Z,17.42
2022-12-11T02:54:26.792Z,16.98
2022-12-11T02:57:09.128Z,18.13
2022-12-11T03:02:05.262Z,16.58
2022-12-11T03:04:36.104Z,18.30
2022-12-11T03:07:25.272Z,20.65
2022-12-11T03:09:54.555Z,17.95
2022-12-11T03:12:28.081Z,18.92
2022-12-11T03:14:55.248Z,20.95
2022-12-11T03:17:25.252Z,18.67
2022-12-11T03:20:23.188Z,19.52
2022-12-11T03:23:00.247Z,19.45
2022-12-11T03:25:43.296Z,18.90
2022-12-11T03:28:12.957Z,19.02
2022-12-11T03:30:41.798Z,19.70
2022-12-11T03:33:13.650Z,19.15
2022-12-11T03:35:43.793Z,20.23
2022-12-11T03:38:21.041Z,19.35
2022-12-11T03:40:51.598Z,20.27
2022-12-11T03:43:21.196Z,20.27
2022-12-11T03:45:51.125Z,19.58
2022-12-11T03:48:21.738Z,20.95
2022-12-11T03:50:49.644Z,20.40
2022-12-11T03:53:19.707Z,18.65
2022-12-11T03:55:48.291Z,19.48
2022-12-11T03:58:17.091Z,19.02
2022-12-11T04:00:43.682Z,18.85
2022-12-11T04:03:14.109Z,20.60
2022-12-11T04:05:50.117Z,20.17
2022-12-11T04:08:18.656Z,20.17
2022-12-11T04:10:45.330Z,20.42
2022-12-11T04:13:13.279Z,20.13
2022-12-11T04:15:40.630Z,19.90
2022-12-11T04:18:26.626Z,19.75
2022-12-11T04:21:13.022Z,18.42
2022-12-11T04:23:59.562Z,18.38
2022-12-11T04:26:26.328Z,18.60
2022-12-11T04:28:53.034Z,18.08
2022-12-11T04:31:22.121Z,18.92
2022-12-11T04:33:49.117Z,17.23
2022-12-11T04:36:19.390Z,16.75
2022-12-11T04:38:46.063Z,17.83
2022-12-11T04:41:14.908Z,17.60
2022-12-11T04:43:45.123Z,16.63
2022-12-11T04:46:17.538Z,17.02
2022-12-11T04:48:51.223Z,16.63
2022-12-11T04:51:21.408Z,15.90
2022-12-11T04:53:48.276Z,16.42
2022-12-11T04:56:18.075Z,16.08
2022-12-11T04:58:46.018Z,16.05
2022-12-11T05:01:23.117Z,15.85
2022-12-11T05:03:50.277Z,15.38
2022-12-11T05:06:18.117Z,16.25
2022-12-11T05:08:47.272Z,15.35
2022-12-11T05:11:15.728Z,15.63
2022-12-11T05:13:43.158Z,15.25
2022-12-11T05:16:14.052Z,14.68
2022-12-11T05:18:41.034Z,14.20
2022-12-11T05:21:10.602Z,15.48
2022-12-11T05:23:39.991Z,13.85
2022-12-11T05:26:17.509Z,15.15
2022-12-11T05:28:44.991Z,15.90
2022-12-11T05:31:18.698Z,14.73
2022-12-11T05:33:46.516Z,13.23
2022-12-11T05:36:20.042Z,13.98
2022-12-11T05:38:49.170Z,13.68
2022-12-11T05:41:18.070Z,14.60
2022-12-11T05:43:47.373Z,13.68
2022-12-11T05:46:20.676Z,13.50
2022-12-11T05:48:55.271Z,12.80
2022-12-11T05:51:21.955Z,12.43
2022-12-11T05:53:54.984Z,12.55
2022-12-11T05:56:27.557Z,13.88
2022-12-11T05:58:55.410Z,13.30
2022-12-11T06:01:39.531Z,13.70
2022-12-11T06:04:08.138Z,13.15
2022-12-11T06:06:35.052Z,12.77
2022-12-11T06:09:04.711Z,13.40
2022-12-11T06:11:33.244Z,12.90
2022-12-11T06:14:04.154Z,12.48
2022-12-11T06:16:34.207Z,12.98
2022-12-11T06:19:03.636Z,12.18
2022-12-11T06:21:34.697Z,11.88
2022-12-11T06:24:06.709Z,10.30
2022-12-11T06:26:35.773Z,11.65
2022-12-11T06:29:05.220Z,12.30
2022-12-11T06:31:36.342Z,11.90
2022-12-11T06:34:03.261Z,12.38
2022-12-11T06:36:32.428Z,12.18
2022-12-11T06:38:59.040Z,12.20
2022-12-11T06:41:26.967Z,12.40
2022-12-11T06:43:53.599Z,10.45
2022-12-11T06:46:20.542Z,10.82
2022-12-11T06:48:51.662Z,11.20
2022-12-11T06:51:27.377Z,10.63
2022-12-11T06:53:59.238Z,10.60
2022-12-11T06:56:28.831Z,10.20
2022-12-11T06:58:56.998Z,10.05
2022-12-11T07:01:27.571Z,9.68
2022-12-11T07:03:58.064Z,10.60
2022-12-11T07:06:29.008Z,9.77
2022-12-11T07:09:00.689Z,10.23
2022-12-11T07:11:29.670Z,10.02
2022-12-11T07:14:01.284Z,9.57
2022-12-11T07:16:30.434Z,11.10
2022-12-11T07:18:59.963Z,12.10
2022-12-11T07:21:26.611Z,11.65
2022-12-11T07:23:56.507Z,12.05
2022-12-11T07:26:23.143Z,12.65
2022-12-11T07:28:52.651Z,12.55
2022-12-11T07:31:22.189Z,11.50
2022-12-11T07:33:56.303Z,11.77
2022-12-11T07:36:23.430Z,10.38
2022-12-11T07:38:52.806Z,11.38
2022-12-11T07:41:29.535Z,11.43
2022-12-11T07:43:56.280Z,9.75
2022-12-11T07:46:28.055Z,9.70
2022-12-11T07:48:54.864Z,10.15
2022-12-11T07:51:26.446Z,11.20
2022-12-11T07:53:54.927Z,10.30
2022-12-11T07:56:22.122Z,10.65
2022-12-11T07:58:48.838Z,10.73
2022-12-11T08:01:18.950Z,10.18
2022-12-11T08:03:45.984Z,11.77
2022-12-11T08:06:12.851Z,11.90
2022-12-11T08:08:41.323Z,10.95
2022-12-11T08:11:10.387Z,11.48
2022-12-11T08:13:37.456Z,10.98
2022-12-11T08:16:06.697Z,11.57
2022-12-11T08:18:34.840Z,12.15
2022-12-11T08:21:09.499Z,12.65
2022-12-11T08:23:36.151Z,12.45
2022-12-11T08:26:04.462Z,12.00
2022-12-11T08:28:31.531Z,12.40
2022-12-11T08:30:58.432Z,11.55
2022-12-11T08:33:25.602Z,11.93
2022-12-11T08:35:52.284Z,11.27
2022-12-11T08:38:25.016Z,11.48
2022-12-11T08:40:52.122Z,10.23
2022-12-11T08:43:18.780Z,10.60
2022-12-11T08:45:46.710Z,11.68
2022-12-11T08:48:13.439Z,10.40
2022-12-11T08:50:40.065Z,10.68
2022-12-11T08:53:06.747Z,10.95
2022-12-11T08:55:33.676Z,9.82
2022-12-11T08:58:00.366Z,11.20
2022-12-11T09:00:27.735Z,11.57
2022-12-11T09:02:54.353Z,11.07
2022-12-11T09:05:21.073Z,10.45
2022-12-11T09:07:47.803Z,10.70
2022-12-11T09:10:14.456Z,11.30
2022-12-11T09:12:41.108Z,10.48
2022-12-11T09:15:08.064Z,9.93
2022-12-11T09:17:35.348Z,9.35
2022-12-11T09:20:02.134Z,8.80
2022-12-11T09:22:28.849Z,9.50
2022-12-11T09:24:55.459Z,9.65
2022-12-11T09:27:22.080Z,9.60
2022-12-11T09:29:49.397Z,10.35
2022-12-11T09:32:16.284Z,9.70
2022-12-11T09:34:42.939Z,9.73
2022-12-11T09:37:09.528Z,10.25
2022-12-11T09:39:36.175Z,11.43
2022-12-11T09:42:18.267Z,10.52
2022-12-11T09:44:54.764Z,10.15
2022-12-11T09:47:38.581Z,9.25
2022-12-11T09:50:13.929Z,8.90
2022-12-11T09:52:48.382Z,9.25
2022-12-11T09:55:19.407Z,7.70
2022-12-11T09:58:05.188Z,7.93
2022-12-11T10:00:41.327Z,7.53
2022-12-11T10:03:55.158Z,7.55
2022-12-11T10:06:32.282Z,7.90
2022-12-11T10:09:25.892Z,7.22
2022-12-11T10:12:19.015Z,7.63
2022-12-11T10:15:14.931Z,6.40
2022-12-11T10:17:44.527Z,7.97
2022-12-11T10:20:24.695Z,6.75
2022-12-11T10:22:53.472Z,6.50
2022-12-11T10:25:29.130Z,10.35
2022-12-11T10:27:56.155Z,8.30
2022-12-11T10:30:25.971Z,8.75
2022-12-11T10:33:08.752Z,8.60
2022-12-11T10:35:53.658Z,9.02
2022-12-11T10:38:20.260Z,8.05
2022-12-11T10:40:52.288Z,10.63
2022-12-11T10:43:19.177Z,9.25
2022-12-11T10:45:54.579Z,7.82
2022-12-11T10:48:23.596Z,8.48
2022-12-11T10:51:03.772Z,8.60
2022-12-11T10:53:32.169Z,8.52
2022-12-11T10:55:59.923Z,8.23
2022-12-11T10:58:33.759Z,9.10
2022-12-11T11:01:08.296Z,9.20
2022-12-11T11:03:38.915Z,8.82
2022-12-11T11:06:20.590Z,10.48
2022-12-11T11:08:58.305Z,10.52
2022-12-11T11:11:36.570Z,12.35
2022-12-11T11:14:12.284Z,12.73
2022-12-11T11:16:41.192Z,10.75
2022-12-11T11:19:15.675Z,10.88
2022-12-11T11:21:49.646Z,10.43
2022-12-11T11:24:37.419Z,11.32
2022-12-11T11:27:30.182Z,11.10
2022-12-11T11:30:01.157Z,10.88
2022-12-11T11:32:38.624Z,11.05
2022-12-11T11:35:26.639Z,11.00
2022-12-11T11:38:18.535Z,13.07
2022-12-11T11:40:48.409Z,11.45
2022-12-11T11:43:38.102Z,11.50
2022-12-11T11:46:21.698Z,10.55
2022-12-11T11:48:48.350Z,11.63
2022-12-11T11:51:21.501Z,10.88
2022-12-11T11:53:51.133Z,10.38
2022-12-11T11:56:22.567Z,9.85
2022-12-11T11:59:07.768Z,10.23
2022-12-11T12:01:34.636Z,9.65
2022-12-11T12:04:03.827Z,9.23
2022-12-11T12:06:50.510Z,10.63
2022-12-11T12:09:51.985Z,10.20
2022-12-11T12:12:34.401Z,9.65
2022-12-11T12:15:10.282Z,9.30
2022-12-11T12:17:54.967Z,10.18
2022-12-11T12:20:34.259Z,9.40
2022-12-11T12:23:26.287Z,7.78
2022-12-11T12:26:00.232Z,8.15
2022-12-11T12:28:44.966Z,8.82
2022-12-11T12:31:28.717Z,8.25
2022-12-11T12:34:28.677Z,8.00
2022-12-11T12:37:01.412Z,8.35
2022-12-11T12:39:39.748Z,9.40
2022-12-11T12:42:11.212Z,9.98
2022-12-11T12:45:11.982Z,8.68
2022-12-11T12:47:41.049Z,9.68
2022-12-11T12:50:14.810Z,10.10
2022-12-11T12:52:42.305Z,9.35
2022-12-11T12:55:24.071Z,8.98
2022-12-11T12:57:55.620Z,9.15
2022-12-11T13:00:40.395Z,7.35
2022-12-11T13:03:30.988Z,8.05
2022-12-11T13:06:10.633Z,8.48
2022-12-11T13:08:45.952Z,8.18
2022-12-11T13:11:15.080Z,7.35
2022-12-11T13:13:51.546Z,7.82
2022-12-11T13:16:25.705Z,8.15
2022-12-11T13:18:53.375Z,7.72
2022-12-11T13:21:39.484Z,8.57
2022-12-11T13:24:20.974Z,11.43
2022-12-11T13:26:49.270Z,9.93
2022-12-11T13:29:34.874Z,9.13
2022-12-11T13:32:23.329Z,8.52
2022-12-11T13:34:57.997Z,8.88
2022-12-11T13:37:36.723Z,8.45
2022-12-11T13:40:08.381Z,7.45
2022-12-11T13:42:47.456Z,8.38
2022-12-11T13:45:30.118Z,6.63
2022-12-11T13:47:58.197Z,8.43
2022-12-11T13:50:31.016Z,8.65
2022-12-11T13:52:59.856Z,10.75
2022-12-11T13:55:30.981Z,10.45
2022-12-11T13:57:58.215Z,9.23
2022-12-11T14:00:30.332Z,9.15
2022-12-11T14:03:00.281Z,9.38
2022-12-11T14:05:27.319Z,10.50
2022-12-11T14:07:58.603Z,10.70
2022-12-11T14:10:31.003Z,14.20
2022-12-11T14:13:15.028Z,10.82
2022-12-11T14:15:44.969Z,17.58
2022-12-11T14:18:23.784Z,12.98
2022-12-11T14:20:58.755Z,11.20
2022-12-11T14:23:33.968Z,8.73
2022-12-11T14:26:01.686Z,8.93
2022-12-11T14:28:36.824Z,8.88
2022-12-11T14:31:05.816Z,9.95
2022-12-11T14:33:46.625Z,8.70
2022-12-11T14:36:15.472Z,8.90
2022-12-11T14:38:49.180Z,9.13
2022-12-11T14:41:18.768Z,8.93
2022-12-11T14:44:06.504Z,9.70
2022-12-11T14:46:39.826Z,8.60
2022-12-11T14:49:22.892Z,9.88
2022-12-11T14:51:51.657Z,9.50
2022-12-11T14:54:32.331Z,9.70
2022-12-11T14:57:00.811Z,11.30
2022-12-11T14:59:32.284Z,10.60
2022-12-11T15:02:01.707Z,9.20
2022-12-11T15:04:32.112Z,10.70
2022-12-11T15:06:59.742Z,9.77
2022-12-11T15:09:36.101Z,10.25
2022-12-11T15:12:16.396Z,11.65
2022-12-11T15:14:50.288Z,10.25
2022-12-11T15:17:18.446Z,10.35
2022-12-11T15:20:01.222Z,12.50
2022-12-11T15:22:31.935Z,12.05
2022-12-11T15:24:59.861Z,9.85
2022-12-11T15:27:38.176Z,9.35
2022-12-11T15:30:34.817Z,9.07
2022-12-11T15:33:22.119Z,9.90
2022-12-11T15:36:23.936Z,12.32
2022-12-11T15:38:50.640Z,10.32
2022-12-11T15:41:21.350Z,10.75
2022-12-11T15:43:48.047Z,10.05
2022-12-11T15:46:16.877Z,10.80
2022-12-11T15:48:43.701Z,11.85
2022-12-11T15:51:16.074Z,12.45
2022-12-11T15:53:43.504Z,10.38
2022-12-11T15:56:16.122Z,11.57
2022-12-11T15:58:48.614Z,11.43
2022-12-11T16:01:15.268Z,12.13
2022-12-11T16:03:41.882Z,10.48
2022-12-11T16:06:13.037Z,10.60
2022-12-11T16:08:39.689Z,10.52
2022-12-11T16:11:06.271Z,10.38
2022-12-11T16:13:32.922Z,10.40
2022-12-11T16:15:59.643Z,11.23
2022-12-11T16:18:26.776Z,10.82
2022-12-11T16:20:53.417Z,11.10
2022-12-11T16:23:20.601Z,10.55
2022-12-11T16:25:47.705Z,10.75
2022-12-11T16:28:17.111Z,13.13
2022-12-11T16:30:44.807Z,13.63
2022-12-11T16:33:14.535Z,21.83
2022-12-11T16:35:42.785Z,16.50
2022-12-11T16:38:10.349Z,13.23
2022-12-11T16:40:37.984Z,11.63
2022-12-11T16:43:05.291Z,11.90
2022-12-11T16:45:32.484Z,12.23
2022-12-11T16:48:01.913Z,11.50
2022-12-11T16:50:28.565Z,12.15
2022-12-11T16:52:56.400Z,11.50
2022-12-11T16:55:23.085Z,11.85
2022-12-11T16:57:49.677Z,11.40
2022-12-11T17:00:16.768Z,11.98
2022-12-11T17:02:48.614Z,11.13
2022-12-11T17:05:15.517Z,13.27
2022-12-11T17:07:42.229Z,12.52
2022-12-11T17:10:09.079Z,12.10
2022-12-11T17:12:35.920Z,12.73
2022-12-11T17:15:02.631Z,11.55
2022-12-11T17:17:30.447Z,14.98
2022-12-11T17:19:59.197Z,14.30
2022-12-11T17:22:25.823Z,16.80
2022-12-11T17:24:52.619Z,14.88
2022-12-11T17:27:19.601Z,12.90
2022-12-11T17:29:49.316Z,13.35
2022-12-11T17:32:17.443Z,12.63
2022-12-11T17:34:44.865Z,12.55
2022-12-11T17:37:11.624Z,11.40
2022-12-11T17:39:38.243Z,11.90
2022-12-11T17:42:05.529Z,11.85
2022-12-11T17:44:32.150Z,12.23
2022-12-11T17:46:59.028Z,12.60
2022-12-11T17:49:28.254Z,11.68
2022-12-11T17:51:55.301Z,12.02
2022-12-11T17:54:23.843Z,14.07
2022-12-11T17:56:50.767Z,13.38
2022-12-11T17:59:17.533Z,12.65
2022-12-11T18:01:45.360Z,12.02
2022-12-11T18:04:12.427Z,13.57
2022-12-11T18:06:39.257Z,13.93
2022-12-11T18:09:06.417Z,13.40
2022-12-11T18:11:33.618Z,13.40
2022-12-11T18:14:00.571Z,12.27
2022-12-11T18:16:38.578Z,12.35
2022-12-11T18:19:12.484Z,14.73
2022-12-11T18:21:42.662Z,14.48
2022-12-11T18:24:12.026Z,15.23
2022-12-11T18:26:38.729Z,14.63
2022-12-11T18:29:06.622Z,15.80
2022-12-11T18:31:37.485Z,15.50
2022-12-11T18:34:16.118Z,15.77
2022-12-11T18:36:52.624Z,14.68
2022-12-11T18:39:19.296Z,13.90
2022-12-11T18:41:58.297Z,14.95
2022-12-11T18:44:30.344Z,14.35
2022-12-11T18:46:57.042Z,16.15
2022-12-11T18:49:28.007Z,16.27
2022-12-11T18:51:54.762Z,15.65
2022-12-11T18:54:21.756Z,15.93
2022-12-11T18:56:48.422Z,16.58
2022-12-11T18:59:17.637Z,16.13
2022-12-11T19:01:46.783Z,15.57
2022-12-11T19:04:15.812Z,12.93
2022-12-11T19:06:44.645Z,14.50
2022-12-11T19:09:12.844Z,14.57
2022-12-11T19:11:50.319Z,14.02
2022-12-11T19:14:21.460Z,14.20
2022-12-11T19:16:53.938Z,14.70
2022-12-11T19:19:21.603Z,14.90
2022-12-11T19:21:50.827Z,15.15
2022-12-11T19:24:23.032Z,13.38
2022-12-11T19:26:49.822Z,14.25
2022-12-11T19:29:29.192Z,15.50
2022-12-11T19:32:00.868Z,14.95
2022-12-11T19:34:27.738Z,15.60
2022-12-11T19:37:00.133Z,14.27
2022-12-11T19:39:30.487Z,13.75
2022-12-11T19:41:57.188Z,14.25
2022-12-11T19:44:26.575Z,13.98
2022-12-11T19:46:53.366Z,13.90
2022-12-11T19:49:22.763Z,13.25
2022-12-11T19:51:51.344Z,13.48
2022-12-11T19:54:19.524Z,14.15
2022-12-11T19:56:48.698Z,13.98
2022-12-11T19:59:17.608Z,12.90
2022-12-11T20:01:53.728Z,14.57
2022-12-11T20:04:26.587Z,15.07
2022-12-11T20:06:55.592Z,14.27
2022-12-11T20:09:27.166Z,13.65
2022-12-11T20:11:53.896Z,14.05
2022-12-11T20:14:25.857Z,14.45
2022-12-11T20:17:16.159Z,15.25
2022-12-11T20:19:43.876Z,14.68
2022-12-11T20:22:10.753Z,14.73
2022-12-11T20:24:37.959Z,15.15
2022-12-11T20:27:11.942Z,14.77
2022-12-11T20:29:43.565Z,15.88
2022-12-11T20:32:18.615Z,14.15
2022-12-11T20:34:45.311Z,13.32
2022-12-11T20:37:12.491Z,14.73
2022-12-11T20:39:39.247Z,14.75
2022-12-11T20:42:11.815Z,13.35
2022-12-11T20:44:38.871Z,13.95
2022-12-11T20:47:07.455Z,13.93
2022-12-11T20:49:34.227Z,14.73
2022-12-11T20:52:00.830Z,14.80
2022-12-11T20:54:27.665Z,14.93
2022-12-11T20:56:55.280Z,15.25
2022-12-11T20:59:22.132Z,13.55
2022-12-11T21:01:52.599Z,14.38
2022-12-11T21:04:19.366Z,14.73
2022-12-11T21:06:57.064Z,15.48
2022-12-11T21:09:27.718Z,14.80
2022-12-11T21:11:59.928Z,15.30
2022-12-11T21:17:00.950Z,15.80
2022-12-11T21:19:31.146Z,15.73
2022-12-11T21:21:59.403Z,16.55
2022-12-11T21:24:28.915Z,15.00
2022-12-11T21:26:57.722Z,15.38
2022-12-11T21:29:25.917Z,16.17
2022-12-11T21:31:55.749Z,16.38
2022-12-11T21:34:25.541Z,15.40
2022-12-11T21:36:56.402Z,16.30
2022-12-11T21:39:34.767Z,15.77
2022-12-11T21:42:07.872Z,16.45
2022-12-11T21:47:31.551Z,14.95
2022-12-11T21:49:58.360Z,17.08
2022-12-11T21:52:24.972Z,16.13
2022-12-11T21:54:54.141Z,16.90
2022-12-11T21:57:26.125Z,18.65
2022-12-11T21:59:53.382Z,18.35
2022-12-11T22:02:20.003Z,18.67
2022-12-11T22:04:49.044Z,19.13
2022-12-11T22:07:18.801Z,18.42
2022-12-11T22:09:45.412Z,18.23
2022-12-11T22:12:22.854Z,18.38
2022-12-11T22:14:52.188Z,18.70
2022-12-11T22:17:19.006Z,18.73
2022-12-11T22:19:46.377Z,18.13
2022-12-11T22:22:14.377Z,18.83
2022-12-11T22:24:42.581Z,18.85
2022-12-11T22:27:20.412Z,18.83
2022-12-11T22:29:54.772Z,17.67
2022-12-11T22:32:21.447Z,18.37
2022-12-11T22:34:53.740Z,18.13
2022-12-11T22:37:22.206Z,18.63
2022-12-11T22:39:52.597Z,18.80
2022-12-11T22:42:19.381Z,17.38
2022-12-11T22:44:48.531Z,18.50
2022-12-11T22:47:15.724Z,18.20
2022-12-11T22:49:42.364Z,18.70
2022-12-11T22:52:09.834Z,17.92
2022-12-11T22:54:43.976Z,18.25
2022-12-11T22:57:11.891Z,17.35
2022-12-11T22:59:42.081Z,17.80
2022-12-11T23:02:08.946Z,18.10
2022-12-11T23:04:35.603Z,18.63
2022-12-11T23:07:05.015Z,17.67
2022-12-11T23:09:31.934Z,17.55
2022-12-11T23:11:58.796Z,16.85
2022-12-11T23:14:27.007Z,16.55
2022-12-11T23:16:53.789Z,17.33
2022-12-11T23:19:25.728Z,17.80
2022-12-11T23:21:52.785Z,17.92
2022-12-11T23:24:19.593Z,16.83
2022-12-11T23:26:48.706Z,18.30
2022-12-11T23:29:17.788Z,17.02
2022-12-11T23:31:46.710Z,17.65
2022-12-11T23:34:13.356Z,17.65
2022-12-11T23:36:42.139Z,17.02
2022-12-11T23:39:08.803Z,16.30
2022-12-11T23:41:39.065Z,17.33
2022-12-11T23:44:05.679Z,16.73
2022-12-11T23:46:32.926Z,16.13
2022-12-11T23:49:01.686Z,17.45
2022-12-11T23:51:33.214Z,16.70
2022-12-11T23:54:02.310Z,18.20
2022-12-11T23:56:29.938Z,17.17
2022-12-11T23:58:59.075Z,18.00
